createdAt,value
2022-08-31T00:00:32.198Z,102331.16
2022-08-31T00:03:18.438Z,102321.66
2022-08-31T00:05:47.822Z,102320.00
2022-08-31T00:08:15.349Z,102312.59
2022-08-31T00:10:47.874Z,102314.28
2022-08-31T00:13:16.192Z,102315.97
2022-08-31T00:15:46.075Z,102315.97
2022-08-31T00:18:14.498Z,102320.28
2022-08-31T00:20:42.927Z,102315.97
2022-08-31T00:23:15.995Z,102316.81
2022-08-31T00:25:48.893Z,102318.84
2022-08-31T00:28:18.058Z,102316.81
2022-08-31T00:30:46.292Z,102325.28
2022-08-31T00:33:14.273Z,102316.00
2022-08-31T00:35:43.060Z,102318.06
2022-08-31T00:38:12.688Z,102327.16
2022-08-31T00:40:45.068Z,102325.72
2022-08-31T00:43:30.665Z,102323.03
2022-08-31T00:45:58.004Z,102326.75
2022-08-31T00:48:25.400Z,102325.91
2022-08-31T00:50:53.167Z,102331.50
2022-08-31T00:53:22.157Z,102337.50
2022-08-31T00:55:49.620Z,102338.97
2022-08-31T00:58:17.258Z,102341.47
2022-08-31T01:00:47.206Z,102343.34
2022-08-31T01:03:15.984Z,102344.63
2022-08-31T01:05:43.458Z,102349.16
2022-08-31T01:08:11.337Z,102346.88
2022-08-31T01:10:44.887Z,102346.25
2022-08-31T01:13:14.575Z,102347.06
2022-08-31T01:15:51.347Z,102342.97
2022-08-31T01:18:24.384Z,102347.50
2022-08-31T01:21:03.646Z,102351.59
2022-08-31T01:23:38.884Z,102350.19
2022-08-31T01:26:10.225Z,102350.81
2022-08-31T01:28:37.529Z,102350.19
2022-08-31T01:31:09.626Z,102350.38
2022-08-31T01:33:39.213Z,102344.00
2022-08-31T01:36:14.293Z,102346.69
2022-08-31T01:38:46.017Z,102336.38
2022-08-31T01:41:14.809Z,102345.03
2022-08-31T01:43:42.132Z,102342.75
2022-08-31T01:46:13.336Z,102338.84
2022-08-31T01:48:43.842Z,102336.78
2022-08-31T01:51:15.071Z,102333.09
2022-08-31T01:53:48.575Z,102335.78
2022-08-31T01:56:20.232Z,102330.59
2022-08-31T01:58:47.568Z,102345.03
2022-08-31T02:01:33.596Z,102337.19
2022-08-31T02:04:03.320Z,102347.53
2022-08-31T02:06:32.556Z,102334.31
2022-08-31T02:09:03.203Z,102345.47
2022-08-31T02:11:31.069Z,102346.47
2022-08-31T02:13:58.847Z,102351.84
2022-08-31T02:16:26.623Z,102346.69
2022-08-31T02:18:54.039Z,102345.03
2022-08-31T02:21:21.863Z,102346.88
2022-08-31T02:23:49.459Z,102346.88
2022-08-31T02:26:18.806Z,102342.16
2022-08-31T02:28:47.102Z,102345.25
2022-08-31T02:31:15.150Z,102352.06
2022-08-31T02:33:43.508Z,102343.38
2022-08-31T02:36:11.806Z,102344.44
2022-08-31T02:38:40.625Z,102338.03
2022-08-31T02:41:09.754Z,102337.41
2022-08-31T02:43:38.411Z,102334.13
2022-08-31T02:46:06.271Z,102343.38
2022-08-31T02:48:35.229Z,102341.94
2022-08-31T02:51:07.530Z,102335.97
2022-08-31T02:53:35.965Z,102338.03
2022-08-31T02:56:04.149Z,102341.72
2022-08-31T02:58:31.474Z,102337.44
2022-08-31T03:01:00.450Z,102342.97
2022-08-31T03:03:27.935Z,102333.09
2022-08-31T03:05:55.441Z,102327.31
2022-08-31T03:08:22.776Z,102331.03
2022-08-31T03:10:50.122Z,102334.09
2022-08-31T03:13:17.797Z,102329.19
2022-08-31T03:15:45.414Z,102329.75
2022-08-31T03:18:14.165Z,102334.06
2022-08-31T03:20:41.517Z,102331.34
2022-08-31T03:23:09.280Z,102327.44
2022-08-31T03:25:39.601Z,102332.56
2022-08-31T03:28:07.541Z,102332.16
2022-08-31T03:30:35.154Z,102333.41
2022-08-31T03:33:03.780Z,102326.59
2022-08-31T03:35:32.728Z,102330.91
2022-08-31T03:38:02.573Z,102328.81
2022-08-31T03:40:30.483Z,102329.22
2022-08-31T03:42:58.823Z,102334.78
2022-08-31T03:45:27.859Z,102329.22
2022-08-31T03:47:55.219Z,102326.53
2022-08-31T03:50:22.756Z,102329.03
2022-08-31T03:52:54.162Z,102327.38
2022-08-31T03:55:21.693Z,102332.72
2022-08-31T03:57:49.031Z,102343.63
2022-08-31T04:00:16.941Z,102338.88
2022-08-31T04:02:44.338Z,102345.47
2022-08-31T04:05:13.374Z,102339.91
2022-08-31T04:07:42.831Z,102347.09
2022-08-31T04:10:14.278Z,102350.16
2022-08-31T04:12:42.021Z,102348.09
2022-08-31T04:15:10.866Z,102346.63
2022-08-31T04:17:39.099Z,102347.06
2022-08-31T04:20:08.024Z,102348.06
2022-08-31T04:22:35.479Z,102349.50
2022-08-31T04:25:02.840Z,102352.56
2022-08-31T04:27:31.917Z,102350.50
2022-08-31T04:29:59.277Z,102350.22
2022-08-31T04:32:26.708Z,102359.06
2022-08-31T04:34:56.461Z,102360.91
2022-08-31T04:37:24.016Z,102358.63
2022-08-31T04:39:52.139Z,102366.88
2022-08-31T04:42:19.898Z,102361.50
2022-08-31T04:44:48.606Z,102372.22
2022-08-31T04:47:15.903Z,102365.84
2022-08-31T04:49:43.204Z,102365.84
2022-08-31T04:52:10.637Z,102370.53
2022-08-31T04:54:38.145Z,102376.09
2022-08-31T04:57:05.735Z,102378.56
2022-08-31T04:59:33.159Z,102378.19
2022-08-31T05:02:02.072Z,102385.81
2022-08-31T05:04:29.957Z,102380.47
2022-08-31T05:06:57.276Z,102386.44
2022-08-31T05:09:24.795Z,102383.78
2022-08-31T05:11:54.669Z,102389.13
2022-08-31T05:14:23.431Z,102385.47
2022-08-31T05:16:51.747Z,102389.13
2022-08-31T05:19:20.932Z,102387.50
2022-08-31T05:21:48.705Z,102396.16
2022-08-31T05:24:21.610Z,102395.13
2022-08-31T05:26:51.814Z,102400.28
2022-08-31T05:29:23.460Z,102395.75
2022-08-31T05:31:52.577Z,102391.69
2022-08-31T05:34:23.832Z,102395.81
2022-08-31T05:36:55.096Z,102396.22
2022-08-31T05:39:24.050Z,102392.13
2022-08-31T05:41:51.726Z,102397.91
2022-08-31T05:44:21.174Z,102390.28
2022-08-31T05:46:54.719Z,102392.78
2022-08-31T05:49:28.121Z,102397.53
2022-08-31T05:51:56.482Z,102395.09
2022-08-31T05:54:23.976Z,102400.06
2022-08-31T05:56:51.454Z,102398.84
2022-08-31T05:59:18.954Z,102404.59
2022-08-31T06:01:46.564Z,102403.00
2022-08-31T06:04:14.524Z,102405.88
2022-08-31T06:06:43.521Z,102402.16
2022-08-31T06:09:11.253Z,102405.91
2022-08-31T06:11:42.175Z,102404.06
2022-08-31T06:14:12.081Z,102406.97
2022-08-31T06:16:44.235Z,102414.19
2022-08-31T06:19:12.351Z,102411.38
2022-08-31T06:21:50.303Z,102419.19
2022-08-31T06:24:18.983Z,102408.53
2022-08-31T06:26:58.447Z,102416.16
2022-08-31T06:29:29.151Z,102411.00
2022-08-31T06:31:56.527Z,102418.00
2022-08-31T06:34:24.694Z,102422.97
2022-08-31T06:36:53.457Z,102420.09
2022-08-31T06:39:20.983Z,102421.75
2022-08-31T06:41:49.233Z,102436.16
2022-08-31T06:44:16.634Z,102427.31
2022-08-31T06:46:47.486Z,102425.69
2022-08-31T06:49:15.555Z,102423.59
2022-08-31T06:51:43.493Z,102425.03
2022-08-31T06:54:29.105Z,102427.09
2022-08-31T06:56:58.478Z,102424.59
2022-08-31T06:59:29.294Z,102427.50
2022-08-31T07:01:58.471Z,102419.84
2022-08-31T07:04:27.485Z,102422.94
2022-08-31T07:06:55.119Z,102419.63
2022-08-31T07:09:24.644Z,102424.16
2022-08-31T07:11:53.727Z,102423.09
2022-08-31T07:14:24.489Z,102425.38
2022-08-31T07:16:54.902Z,102423.69
2022-08-31T07:19:22.615Z,102428.91
2022-08-31T07:21:53.043Z,102432.50
2022-08-31T07:24:25.237Z,102422.63
2022-08-31T07:26:58.235Z,102426.09
2022-08-31T07:29:30.457Z,102420.13
2022-08-31T07:31:59.502Z,102431.72
2022-08-31T07:34:30.302Z,102434.22
2022-08-31T07:37:18.935Z,102432.34
2022-08-31T07:40:08.344Z,102427.19
2022-08-31T07:42:39.402Z,102426.81
2022-08-31T07:45:12.941Z,102431.00
2022-08-31T07:47:47.065Z,102434.91
2022-08-31T07:50:17.189Z,102437.47
2022-08-31T07:52:48.589Z,102431.19
2022-08-31T07:55:18.887Z,102431.16
2022-08-31T07:57:46.794Z,102425.75
2022-08-31T08:00:21.020Z,102424.78
2022-08-31T08:02:52.843Z,102434.38
2022-08-31T08:05:26.795Z,102438.50
2022-08-31T08:08:09.372Z,102431.41
2022-08-31T08:10:43.680Z,102432.69
2022-08-31T08:13:14.400Z,102431.09
2022-08-31T08:15:41.855Z,102429.50
2022-08-31T08:18:12.191Z,102422.94
2022-08-31T08:20:40.277Z,102432.97
2022-08-31T08:23:11.744Z,102436.91
2022-08-31T08:25:44.359Z,102440.44
2022-08-31T08:28:35.951Z,102441.84
2022-08-31T08:31:06.862Z,102435.44
2022-08-31T08:33:35.713Z,102437.94
2022-08-31T08:36:08.066Z,102447.19
2022-08-31T08:38:39.568Z,102445.53
2022-08-31T08:41:15.749Z,102441.84
2022-08-31T08:43:50.054Z,102441.03
2022-08-31T08:46:37.376Z,102440.78
2022-08-31T08:49:16.608Z,102443.75
2022-08-31T08:51:50.594Z,102442.34
2022-08-31T08:54:31.017Z,102440.25
2022-08-31T08:57:14.044Z,102454.50
2022-08-31T08:59:43.427Z,102441.94
2022-08-31T09:02:17.274Z,102442.66
2022-08-31T09:05:17.986Z,102445.13
2022-08-31T09:08:16.233Z,102444.31
2022-08-31T09:10:58.459Z,102447.81
2022-08-31T09:13:43.797Z,102445.66
2022-08-31T09:16:28.436Z,102441.69
2022-08-31T09:19:00.883Z,102437.25
2022-08-31T09:21:34.534Z,102427.38
2022-08-31T09:24:08.338Z,102423.28
2022-08-31T09:26:56.521Z,102422.84
2022-08-31T09:29:32.027Z,102426.47
2022-08-31T09:32:06.511Z,102428.88
2022-08-31T09:34:37.590Z,102420.00
2022-08-31T09:37:16.557Z,102425.94
2022-08-31T09:39:49.366Z,102431.78
2022-08-31T09:42:31.452Z,102428.59
2022-08-31T09:45:05.782Z,102421.34
2022-08-31T09:47:51.097Z,102427.75
2022-08-31T09:50:31.810Z,102425.69
2022-08-31T09:53:39.804Z,102422.97
2022-08-31T09:56:15.653Z,102422.72
2022-08-31T09:58:47.509Z,102424.66
2022-08-31T10:01:24.682Z,102428.06
2022-08-31T10:04:17.009Z,102420.63
2022-08-31T10:06:55.343Z,102414.97
2022-08-31T10:09:36.087Z,102408.03
2022-08-31T10:12:11.786Z,102407.88
2022-08-31T10:14:50.855Z,102402.28
2022-08-31T10:17:31.951Z,102398.97
2022-08-31T10:20:09.871Z,102396.16
2022-08-31T10:22:42.091Z,102405.25
2022-08-31T10:25:26.804Z,102393.81
2022-08-31T10:28:03.875Z,102403.50
2022-08-31T10:30:43.068Z,102391.47
2022-08-31T10:33:19.652Z,102378.56
2022-08-31T10:35:58.828Z,102389.44
2022-08-31T10:38:38.574Z,102385.00
2022-08-31T10:41:14.463Z,102370.06
2022-08-31T10:43:51.091Z,102388.47
2022-08-31T10:46:18.610Z,102377.78
2022-08-31T10:48:55.011Z,102379.69
2022-08-31T10:51:37.495Z,102374.31
2022-08-31T10:54:28.758Z,102387.81
2022-08-31T10:57:22.373Z,102386.53
2022-08-31T11:00:02.224Z,102375.31
2022-08-31T11:02:56.069Z,102371.88
2022-08-31T11:05:35.275Z,102366.16
2022-08-31T11:08:39.701Z,102364.66
2022-08-31T11:11:17.892Z,102368.75
2022-08-31T11:14:08.098Z,102363.13
2022-08-31T11:17:43.750Z,102366.47
2022-08-31T11:20:57.853Z,102353.75
2022-08-31T11:23:51.492Z,102362.69
2022-08-31T11:26:45.442Z,102353.44
2022-08-31T11:29:34.407Z,102355.91
2022-08-31T11:32:15.087Z,102350.84
2022-08-31T11:34:50.857Z,102346.59
2022-08-31T11:37:52.923Z,102334.78
2022-08-31T11:41:00.515Z,102337.63
2022-08-31T11:43:52.402Z,102333.34
2022-08-31T11:47:02.159Z,102339.16
2022-08-31T11:49:46.619Z,102333.69
2022-08-31T11:52:34.491Z,102329.81
2022-08-31T11:55:28.406Z,102324.78
2022-08-31T11:58:32.710Z,102327.97
2022-08-31T12:01:30.110Z,102320.03
2022-08-31T12:04:04.775Z,102322.41
2022-08-31T12:07:11.140Z,102317.66
2022-08-31T12:10:31.559Z,102314.50
2022-08-31T12:13:19.501Z,102311.25
2022-08-31T12:16:10.723Z,102314.56
2022-08-31T12:19:48.191Z,102310.75
2022-08-31T12:23:11.708Z,102303.94
2022-08-31T12:26:06.716Z,102303.91
2022-08-31T12:29:01.281Z,102298.75
2022-08-31T12:31:29.556Z,102308.00
2022-08-31T12:34:05.234Z,102293.56
2022-08-31T12:36:36.675Z,102291.13
2022-08-31T12:39:10.980Z,102294.91
2022-08-31T12:41:47.059Z,102292.75
2022-08-31T12:44:22.377Z,102287.31
2022-08-31T12:47:03.031Z,102289.28
2022-08-31T12:49:58.110Z,102292.78
2022-08-31T12:52:51.603Z,102276.69
2022-08-31T12:55:31.477Z,102284.63
2022-08-31T12:58:59.013Z,102275.09
2022-08-31T13:01:28.481Z,102282.47
2022-08-31T13:04:01.223Z,102282.19
2022-08-31T13:06:33.029Z,102270.47
2022-08-31T13:09:01.678Z,102279.75
2022-08-31T13:11:35.270Z,102274.56
2022-08-31T13:14:14.807Z,102262.31
2022-08-31T13:16:45.432Z,102267.75
2022-08-31T13:19:23.538Z,102269.34
2022-08-31T13:21:55.958Z,102264.19
2022-08-31T13:24:33.242Z,102267.19
2022-08-31T13:27:12.131Z,102258.75
2022-08-31T13:29:44.204Z,102255.75
2022-08-31T13:32:32.521Z,102249.22
2022-08-31T13:35:04.327Z,102242.16
2022-08-31T13:37:39.485Z,102235.66
2022-08-31T13:40:12.355Z,102242.72
2022-08-31T13:42:45.498Z,102255.47
2022-08-31T13:45:30.524Z,102254.41
2022-08-31T13:48:04.713Z,102249.22
2022-08-31T13:50:52.050Z,102248.41
2022-08-31T13:53:39.850Z,102241.34
2022-08-31T13:56:56.105Z,102238.63
2022-08-31T13:59:35.717Z,102238.91
2022-08-31T14:02:30.792Z,102233.47
2022-08-31T14:05:12.870Z,102229.91
2022-08-31T14:07:56.300Z,102233.47
2022-08-31T14:10:27.661Z,102234.53
2022-08-31T14:13:02.668Z,102237.28
2022-08-31T14:15:40.977Z,102240.78
2022-08-31T14:18:27.534Z,102227.16
2022-08-31T14:21:22.657Z,102227.47
2022-08-31T14:23:54.412Z,102222.81
2022-08-31T14:26:26.320Z,102223.91
2022-08-31T14:29:00.322Z,102217.78
2022-08-31T14:31:37.165Z,102221.19
2022-08-31T14:34:20.088Z,102222.13
2022-08-31T14:36:53.899Z,102213.22
2022-08-31T14:39:26.797Z,102212.69
2022-08-31T14:41:58.140Z,102209.13
2022-08-31T14:44:31.229Z,102220.84
2022-08-31T14:46:59.367Z,102204.78
2022-08-31T14:49:35.360Z,102209.69
2022-08-31T14:52:06.406Z,102205.06
2022-08-31T14:54:37.088Z,102201.53
2022-08-31T14:57:11.640Z,102195.28
2022-08-31T14:59:43.759Z,102193.91
2022-08-31T15:02:13.559Z,102195.81
2022-08-31T15:04:45.590Z,102202.88
2022-08-31T15:07:14.827Z,102198.88
2022-08-31T15:09:43.870Z,102193.44
2022-08-31T15:12:14.836Z,102191.56
2022-08-31T15:14:43.210Z,102188.31
2022-08-31T15:17:19.151Z,102189.13
2022-08-31T15:19:50.649Z,102191.00
2022-08-31T15:22:19.226Z,102191.84
2022-08-31T15:24:46.775Z,102197.81
2022-08-31T15:27:15.957Z,102199.75
2022-08-31T15:29:46.713Z,102194.84
2022-08-31T15:32:17.618Z,102194.84
2022-08-31T15:34:53.425Z,102188.31
2022-08-31T15:37:22.298Z,102190.75
2022-08-31T15:39:50.666Z,102194.59
2022-08-31T15:42:21.186Z,102193.22
2022-08-31T15:44:56.855Z,102189.44
2022-08-31T15:47:45.474Z,102187.78
2022-08-31T15:50:13.265Z,102187.19
2022-08-31T15:52:49.735Z,102183.66
2022-08-31T15:55:23.582Z,102179.56
2022-08-31T15:57:54.414Z,102183.34
2022-08-31T16:00:23.709Z,102177.91
2022-08-31T16:02:55.197Z,102183.38
2022-08-31T16:05:24.392Z,102183.94
2022-08-31T16:07:55.638Z,102185.56
2022-08-31T16:10:23.532Z,102171.16
2022-08-31T16:12:52.675Z,102170.09
2022-08-31T16:15:24.417Z,102174.13
2022-08-31T16:17:55.876Z,102169.81
2022-08-31T16:20:23.346Z,102172.25
2022-08-31T16:22:52.008Z,102167.03
2022-08-31T16:25:20.532Z,102168.13
2022-08-31T16:27:48.111Z,102163.47
2022-08-31T16:30:15.932Z,102158.81
2022-08-31T16:32:44.358Z,102157.19
2022-08-31T16:35:12.611Z,102162.09
2022-08-31T16:37:39.962Z,102156.16
2022-08-31T16:40:10.618Z,102159.41
2022-08-31T16:42:38.553Z,102150.19
2022-08-31T16:45:07.199Z,102160.97
2022-08-31T16:47:34.713Z,102162.28
2022-08-31T16:50:06.072Z,102160.91
2022-08-31T16:52:34.836Z,102154.09
2022-08-31T16:55:02.395Z,102154.63
2022-08-31T16:57:32.788Z,102157.63
2022-08-31T17:00:02.930Z,102157.63
2022-08-31T17:02:30.380Z,102164.22
2022-08-31T17:05:03.760Z,102155.00
2022-08-31T17:07:31.103Z,102155.03
2022-08-31T17:10:06.517Z,102159.41
2022-08-31T17:12:36.896Z,102163.78
2022-08-31T17:15:05.726Z,102162.69
2022-08-31T17:17:33.676Z,102155.06
2022-08-31T17:20:01.075Z,102155.06
2022-08-31T17:22:33.349Z,102157.78
2022-08-31T17:25:04.369Z,102165.13
2022-08-31T17:27:35.088Z,102169.72
2022-08-31T17:30:06.277Z,102174.34
2022-08-31T17:32:36.772Z,102169.13
2022-08-31T17:35:15.133Z,102169.63
2022-08-31T17:37:42.545Z,102169.56
2022-08-31T17:40:14.006Z,102165.97
2022-08-31T17:42:42.823Z,102167.16
2022-08-31T17:45:11.422Z,102176.84
2022-08-31T17:47:39.322Z,102176.50
2022-08-31T17:50:08.177Z,102176.41
2022-08-31T17:52:35.679Z,102171.16
2022-08-31T17:55:04.092Z,102173.50
2022-08-31T17:57:31.521Z,102184.00
2022-08-31T18:00:00.265Z,102181.75
2022-08-31T18:02:34.890Z,102179.53
2022-08-31T18:05:03.670Z,102185.41
2022-08-31T18:07:37.293Z,102185.34
2022-08-31T18:10:05.606Z,102179.88
2022-08-31T18:12:34.871Z,102181.94
2022-08-31T18:15:04.039Z,102185.09
2022-08-31T18:17:31.527Z,102189.09
2022-08-31T18:19:58.970Z,102183.88
2022-08-31T18:22:27.246Z,102186.50
2022-08-31T18:24:54.681Z,102201.03
2022-08-31T18:27:22.358Z,102192.28
2022-08-31T18:29:49.843Z,102198.72
2022-08-31T18:32:18.772Z,102194.28
2022-08-31T18:34:47.423Z,102198.28
2022-08-31T18:37:22.131Z,102198.41
2022-08-31T18:40:08.674Z,102201.31
2022-08-31T18:42:56.907Z,102215.50
2022-08-31T18:45:25.361Z,102222.41
2022-08-31T18:50:47.492Z,102226.50
2022-08-31T18:53:28.432Z,102227.47
2022-08-31T18:56:06.482Z,102228.13
2022-08-31T18:58:35.614Z,102229.91
2022-08-31T19:01:03.980Z,102241.69
2022-08-31T19:03:32.857Z,102235.63
2022-08-31T19:06:00.255Z,102230.38
2022-08-31T19:08:28.465Z,102232.16
2022-08-31T19:10:57.255Z,102240.16
2022-08-31T19:13:29.930Z,102236.81
2022-08-31T19:16:01.564Z,102238.03
2022-08-31T19:18:35.845Z,102231.97
2022-08-31T19:21:21.137Z,102240.66
2022-08-31T19:23:49.276Z,102231.94
2022-08-31T19:26:23.287Z,102232.09
2022-08-31T19:28:50.941Z,102231.53
2022-08-31T19:31:20.976Z,102228.72
2022-08-31T19:33:56.524Z,102231.09
2022-08-31T19:36:24.680Z,102236.97
2022-08-31T19:38:53.927Z,102233.13
2022-08-31T19:41:25.175Z,102241.69
2022-08-31T19:44:04.115Z,102236.16
2022-08-31T19:46:35.136Z,102240.88
2022-08-31T19:49:04.217Z,102237.81
2022-08-31T19:51:32.773Z,102240.19
2022-08-31T19:54:01.245Z,102241.72
2022-08-31T19:56:31.241Z,102237.84
2022-08-31T19:58:59.779Z,102234.00
2022-08-31T20:01:33.684Z,102239.63
2022-08-31T20:04:04.438Z,102240.94
2022-08-31T20:06:32.540Z,102243.00
2022-08-31T20:09:00.060Z,102243.47
2022-08-31T20:11:30.428Z,102242.31
2022-08-31T20:13:59.491Z,102241.13
2022-08-31T20:16:33.731Z,102243.25
2022-08-31T20:19:04.738Z,102243.69
2022-08-31T20:21:35.207Z,102248.06
2022-08-31T20:24:06.779Z,102253.69
2022-08-31T20:26:47.552Z,102254.16
2022-08-31T20:29:20.400Z,102255.44
2022-08-31T20:31:51.202Z,102258.00
2022-08-31T20:34:23.148Z,102256.84
2022-08-31T20:36:59.872Z,102263.16
2022-08-31T20:39:31.073Z,102263.03
2022-08-31T20:42:00.182Z,102270.53
2022-08-31T20:44:30.968Z,102265.72
2022-08-31T20:47:21.301Z,102267.81
2022-08-31T20:49:55.112Z,102264.56
2022-08-31T20:52:26.231Z,102263.97
2022-08-31T20:55:01.409Z,102272.88
2022-08-31T20:57:32.011Z,102267.69
2022-08-31T21:00:00.971Z,102278.72
2022-08-31T21:02:29.252Z,102276.72
2022-08-31T21:05:10.353Z,102267.69
2022-08-31T21:07:46.123Z,102275.25
2022-08-31T21:10:13.447Z,102272.44
2022-08-31T21:12:40.819Z,102272.88
2022-08-31T21:15:12.348Z,102282.47
2022-08-31T21:17:40.649Z,102286.69
2022-08-31T21:20:10.995Z,102288.66
2022-08-31T21:22:38.747Z,102282.53
2022-08-31T21:25:12.529Z,102293.16
2022-08-31T21:27:40.794Z,102288.69
2022-08-31T21:30:11.116Z,102293.31
2022-08-31T21:32:41.918Z,102289.06
2022-08-31T21:35:15.009Z,102282.75
2022-08-31T21:37:42.680Z,102293.34
2022-08-31T21:40:11.595Z,102293.19
2022-08-31T21:42:39.073Z,102298.66
2022-08-31T21:45:07.684Z,102295.56
2022-08-31T21:47:35.002Z,102304.06
2022-08-31T21:50:02.763Z,102302.88
2022-08-31T21:52:31.575Z,102301.91
2022-08-31T21:54:58.960Z,102306.94
2022-08-31T21:57:26.351Z,102301.16
2022-08-31T21:59:53.711Z,102307.81
2022-08-31T22:02:21.051Z,102296.44
2022-08-31T22:04:48.389Z,102300.19
2022-08-31T22:07:15.757Z,102301.81
2022-08-31T22:09:46.717Z,102297.50
2022-08-31T22:12:14.997Z,102300.63
2022-08-31T22:14:44.758Z,102308.09
2022-08-31T22:17:12.967Z,102309.38
2022-08-31T22:19:43.672Z,102310.63
2022-08-31T22:22:12.857Z,102306.53
2022-08-31T22:24:41.620Z,102309.44
2022-08-31T22:27:12.999Z,102312.72
2022-08-31T22:29:41.016Z,102308.97
2022-08-31T22:32:15.053Z,102310.63
2022-08-31T22:34:43.615Z,102316.84
2022-08-31T22:37:13.811Z,102317.66
2022-08-31T22:39:42.539Z,102321.16
2022-08-31T22:42:12.089Z,102312.28
2022-08-31T22:44:40.603Z,102317.03
2022-08-31T22:47:08.079Z,102316.44
2022-08-31T22:49:35.627Z,102314.81
2022-08-31T22:52:04.466Z,102318.31
2022-08-31T22:54:32.230Z,102322.88
2022-08-31T22:56:59.595Z,102322.66
2022-08-31T22:59:30.447Z,102330.50
2022-08-31T23:02:03.211Z,102318.09
2022-08-31T23:04:34.309Z,102324.50
2022-08-31T23:07:04.369Z,102317.50
2022-08-31T23:09:34.062Z,102316.09
2022-08-31T23:12:04.850Z,102320.88
2022-08-31T23:14:33.922Z,102306.19
2022-08-31T23:17:05.065Z,102318.22
2022-08-31T23:19:36.968Z,102309.56
2022-08-31T23:22:11.262Z,102304.00
2022-08-31T23:24:44.847Z,102310.25
2022-08-31T23:27:14.846Z,102312.75
2022-08-31T23:29:47.852Z,102314.69
2022-08-31T23:32:18.958Z,102296.53
2022-08-31T23:34:49.795Z,102301.50
2022-08-31T23:37:18.413Z,102300.72
2022-08-31T23:39:46.523Z,102292.84
2022-08-31T23:42:16.829Z,102294.94
2022-08-31T23:44:47.793Z,102292.47
2022-08-31T23:47:18.710Z,102302.41
2022-08-31T23:49:47.096Z,102301.78
2022-08-31T23:52:18.693Z,102301.19
2022-08-31T23:54:46.862Z,102303.06
2022-08-31T23:57:31.798Z,102301.19
